createdAt,value
2022-08-23T00:00:16.292Z,2.40
2022-08-23T00:01:16.113Z,2.10
2022-08-23T00:02:23.862Z,2.10
2022-08-23T00:03:17.125Z,2.50
2022-08-23T00:04:16.084Z,2.00
2022-08-23T00:05:16.064Z,2.30
2022-08-23T00:06:16.065Z,2.30
2022-08-23T00:07:16.046Z,2.30
2022-08-23T00:08:16.044Z,2.00
2022-08-23T00:09:16.014Z,2.50
2022-08-23T00:10:16.031Z,2.30
2022-08-23T00:11:16.362Z,2.30
2022-08-23T00:12:16.003Z,2.10
2022-08-23T00:13:15.975Z,2.10
2022-08-23T00:14:15.975Z,2.10
2022-08-23T00:15:15.944Z,2.00
2022-08-23T00:16:15.946Z,2.30
2022-08-23T00:17:30.981Z,2.70
2022-08-23T00:18:16.932Z,2.30
2022-08-23T00:19:15.905Z,1.90
2022-08-23T00:20:15.914Z,2.40
2022-08-23T00:21:15.905Z,2.40
2022-08-23T00:22:15.884Z,2.30
2022-08-23T00:23:15.864Z,2.40
2022-08-23T00:24:15.884Z,2.60
2022-08-23T00:25:15.834Z,2.30
2022-08-23T00:26:15.833Z,2.90
2022-08-23T00:27:15.814Z,2.60
2022-08-23T00:28:15.817Z,2.20
2022-08-23T00:29:15.786Z,2.00
2022-08-23T00:30:15.797Z,2.50
2022-08-23T00:31:15.757Z,2.40
2022-08-23T00:32:15.774Z,2.40
2022-08-23T00:33:15.793Z,2.40
2022-08-23T00:34:15.745Z,2.10
2022-08-23T00:35:26.284Z,2.20
2022-08-23T00:36:16.716Z,2.40
2022-08-23T00:37:15.698Z,2.10
2022-08-23T00:38:34.196Z,2.60
2022-08-23T00:39:16.666Z,2.40
2022-08-23T00:40:15.726Z,2.10
2022-08-23T00:41:15.646Z,2.20
2022-08-23T00:42:15.646Z,2.20
2022-08-23T00:43:15.617Z,1.90
2022-08-23T00:44:15.628Z,2.10
2022-08-23T00:45:15.596Z,3.20
2022-08-23T00:46:15.605Z,2.10
2022-08-23T00:47:15.577Z,2.30
2022-08-23T00:48:15.585Z,1.90
2022-08-23T00:49:15.557Z,2.30
2022-08-23T00:50:19.247Z,2.40
2022-08-23T00:51:16.551Z,2.10
2022-08-23T00:52:15.539Z,2.20
2022-08-23T00:53:15.549Z,1.90
2022-08-23T00:54:15.507Z,2.20
2022-08-23T00:55:15.488Z,2.00
2022-08-23T00:56:15.490Z,2.10
2022-08-23T00:57:15.467Z,2.30
2022-08-23T00:58:15.494Z,2.10
2022-08-23T00:59:15.447Z,2.20
2022-08-23T01:00:15.447Z,1.90
2022-08-23T01:01:15.564Z,2.00
2022-08-23T01:02:15.417Z,2.20
2022-08-23T01:03:15.792Z,2.30
2022-08-23T01:04:15.396Z,2.10
2022-08-23T01:05:15.370Z,2.90
2022-08-23T01:06:15.377Z,2.00
2022-08-23T01:07:15.357Z,2.40
2022-08-23T01:08:15.347Z,2.10
2022-08-23T01:09:15.331Z,2.20
2022-08-23T01:10:19.985Z,2.10
2022-08-23T01:11:16.308Z,2.30
2022-08-23T01:12:15.309Z,2.10
2022-08-23T01:13:15.289Z,2.10
2022-08-23T01:14:15.288Z,2.20
2022-08-23T01:15:15.257Z,2.00
2022-08-23T01:16:15.265Z,2.30
2022-08-23T01:17:15.239Z,2.10
2022-08-23T01:18:15.247Z,1.90
2022-08-23T01:19:15.208Z,2.10
2022-08-23T01:20:15.213Z,1.80
2022-08-23T01:21:15.189Z,1.80
2022-08-23T01:22:15.218Z,2.20
2022-08-23T01:23:15.179Z,1.90
2022-08-23T01:24:41.154Z,2.00
2022-08-23T01:25:16.148Z,2.00
2022-08-23T01:26:15.148Z,2.50
2022-08-23T01:27:16.129Z,1.90
2022-08-23T01:28:15.139Z,1.90
2022-08-23T01:29:15.098Z,1.90
2022-08-23T01:30:15.109Z,2.20
2022-08-23T01:31:15.079Z,1.90
2022-08-23T01:32:15.087Z,1.90
2022-08-23T01:33:15.097Z,2.00
2022-08-23T01:34:15.280Z,2.00
2022-08-23T01:35:15.053Z,1.90
2022-08-23T01:36:15.019Z,1.90
2022-08-23T01:37:15.032Z,2.20
2022-08-23T01:38:15.017Z,2.00
2022-08-23T01:39:15.002Z,2.10
2022-08-23T01:40:15.026Z,2.20
2022-08-23T01:41:14.979Z,2.30
2022-08-23T01:42:14.959Z,1.70
2022-08-23T01:43:15.039Z,1.80
2022-08-23T01:44:14.941Z,2.20
2022-08-23T01:45:14.940Z,1.80
2022-08-23T01:46:14.909Z,2.10
2022-08-23T01:47:14.920Z,2.10
2022-08-23T01:48:14.900Z,2.20
2022-08-23T01:49:14.898Z,1.80
2022-08-23T01:50:14.878Z,1.90
2022-08-23T01:51:14.871Z,2.00
2022-08-23T01:52:14.840Z,2.00
2022-08-23T01:53:14.849Z,2.10
2022-08-23T01:54:14.819Z,1.80
2022-08-23T01:55:14.829Z,2.00
2022-08-23T01:56:14.804Z,1.80
2022-08-23T01:57:14.800Z,1.80
2022-08-23T01:58:14.773Z,1.90
2022-08-23T01:59:14.782Z,2.00
2022-08-23T02:00:14.752Z,1.90
2022-08-23T02:01:14.798Z,1.80
2022-08-23T02:02:14.741Z,2.20
2022-08-23T02:03:14.732Z,2.10
2022-08-23T02:04:14.712Z,1.80
2022-08-23T02:05:14.709Z,1.90
2022-08-23T02:06:14.688Z,1.60
2022-08-23T02:07:14.718Z,2.00
2022-08-23T02:08:15.531Z,1.80
2022-08-23T02:09:17.491Z,3.10
2022-08-23T02:10:14.640Z,2.30
2022-08-23T02:11:14.640Z,2.00
2022-08-23T02:12:14.620Z,2.30
2022-08-23T02:13:14.642Z,1.70
2022-08-23T02:14:14.604Z,1.80
2022-08-23T02:15:14.614Z,1.80
2022-08-23T02:16:14.957Z,2.00
2022-08-23T02:17:14.571Z,2.00
2022-08-23T02:18:14.551Z,2.00
2022-08-23T02:19:14.548Z,2.20
2022-08-23T02:20:14.531Z,2.00
2022-08-23T02:21:14.532Z,1.90
2022-08-23T02:22:14.512Z,2.00
2022-08-23T02:23:14.510Z,1.90
2022-08-23T02:24:14.480Z,1.80
2022-08-23T02:25:14.491Z,2.00
2022-08-23T02:26:14.610Z,2.40
2022-08-23T02:27:14.472Z,1.80
2022-08-23T02:28:14.441Z,1.90
2022-08-23T02:29:14.442Z,1.80
2022-08-23T02:30:14.413Z,2.00
2022-08-23T02:31:14.542Z,2.20
2022-08-23T02:32:14.392Z,2.00
2022-08-23T02:33:14.400Z,1.90
2022-08-23T02:34:14.381Z,1.50
2022-08-23T02:35:14.372Z,1.80
2022-08-23T02:36:14.408Z,1.90
2022-08-23T02:37:14.366Z,2.00
2022-08-23T02:38:14.382Z,2.00
2022-08-23T02:39:14.352Z,1.70
2022-08-23T02:40:14.336Z,1.70
2022-08-23T02:41:14.302Z,2.20
2022-08-23T02:42:14.280Z,2.10
2022-08-23T02:43:14.281Z,1.70
2022-08-23T02:44:14.252Z,2.20
2022-08-23T02:45:14.283Z,1.70
2022-08-23T02:46:14.233Z,1.80
2022-08-23T02:47:14.232Z,1.90
2022-08-23T02:48:15.024Z,1.80
2022-08-23T02:49:14.213Z,2.00
2022-08-23T02:50:14.202Z,2.00
2022-08-23T02:51:14.190Z,1.90
2022-08-23T02:52:14.177Z,1.80
2022-08-23T02:53:14.867Z,1.90
2022-08-23T02:54:14.143Z,2.10
2022-08-23T02:55:14.702Z,1.90
2022-08-23T02:56:21.267Z,2.00
2022-08-23T02:57:15.122Z,2.20
2022-08-23T02:58:14.102Z,1.90
2022-08-23T02:59:14.983Z,2.00
2022-08-23T03:00:14.083Z,2.10
2022-08-23T03:01:14.084Z,2.00
2022-08-23T03:02:14.071Z,1.70
2022-08-23T03:03:14.053Z,2.00
2022-08-23T03:04:14.352Z,1.90
2022-08-23T03:05:14.262Z,1.80
2022-08-23T03:06:24.783Z,1.90
2022-08-23T03:07:15.002Z,1.70
2022-08-23T03:08:13.991Z,2.10
2022-08-23T03:09:14.063Z,1.90
2022-08-23T03:10:14.083Z,1.70
2022-08-23T03:11:14.102Z,1.90
2022-08-23T03:12:13.936Z,1.90
2022-08-23T03:13:13.943Z,1.80
2022-08-23T03:14:13.913Z,2.00
2022-08-23T03:15:14.735Z,1.80
2022-08-23T03:16:14.633Z,2.20
2022-08-23T03:17:14.608Z,2.30
2022-08-23T03:18:13.883Z,1.90
2022-08-23T03:19:13.878Z,1.80
2022-08-23T03:20:13.870Z,1.90
2022-08-23T03:21:14.665Z,1.90
2022-08-23T03:22:13.826Z,1.40
2022-08-23T03:23:13.833Z,1.60
2022-08-23T03:24:13.793Z,1.90
2022-08-23T03:25:13.805Z,1.90
2022-08-23T03:26:13.783Z,1.80
2022-08-23T03:27:13.781Z,1.80
2022-08-23T03:28:13.753Z,2.00
2022-08-23T03:29:13.753Z,2.30
2022-08-23T03:30:19.235Z,2.10
2022-08-23T03:31:14.738Z,2.00
2022-08-23T03:32:15.460Z,1.90
2022-08-23T03:33:13.712Z,1.90
2022-08-23T03:34:13.683Z,2.00
2022-08-23T03:35:15.183Z,1.90
2022-08-23T03:36:14.504Z,1.90
2022-08-23T03:37:14.414Z,2.10
2022-08-23T03:38:13.763Z,1.90
2022-08-23T03:39:13.633Z,1.80
2022-08-23T03:40:13.679Z,1.90
2022-08-23T03:41:13.622Z,2.00
2022-08-23T03:42:14.004Z,2.80
2022-08-23T03:43:14.415Z,2.60
2022-08-23T03:44:14.114Z,2.00
2022-08-23T03:45:13.564Z,2.00
2022-08-23T03:46:13.626Z,2.20
2022-08-23T03:47:13.545Z,2.10
2022-08-23T03:48:14.375Z,2.20
2022-08-23T03:49:13.743Z,2.40
2022-08-23T03:50:13.744Z,2.20
2022-08-23T03:51:13.495Z,2.50
2022-08-23T03:52:14.260Z,2.30
2022-08-23T03:53:13.502Z,2.00
2022-08-23T03:54:14.312Z,2.40
2022-08-23T03:55:13.469Z,2.00
2022-08-23T03:56:14.375Z,2.20
2022-08-23T03:57:14.313Z,2.50
2022-08-23T03:58:13.427Z,2.20
2022-08-23T03:59:14.353Z,2.10
2022-08-23T04:00:13.395Z,2.40
2022-08-23T04:01:13.399Z,2.20
2022-08-23T04:02:13.414Z,2.00
2022-08-23T04:03:13.394Z,1.90
2022-08-23T04:04:13.372Z,2.10
2022-08-23T04:05:14.164Z,2.10
2022-08-23T04:06:14.185Z,2.00
2022-08-23T04:07:13.332Z,2.00
2022-08-23T04:08:13.304Z,1.90
2022-08-23T04:09:13.293Z,2.00
2022-08-23T04:10:13.277Z,2.10
2022-08-23T04:11:14.215Z,1.90
2022-08-23T04:12:17.459Z,2.40
2022-08-23T04:13:13.243Z,2.00
2022-08-23T04:14:13.256Z,2.10
2022-08-23T04:15:13.227Z,2.00
2022-08-23T04:16:13.615Z,1.70
2022-08-23T04:17:14.164Z,2.10
2022-08-23T04:18:13.227Z,2.10
2022-08-23T04:19:13.173Z,1.80
2022-08-23T04:20:13.345Z,1.90
2022-08-23T04:21:13.164Z,2.30
2022-08-23T04:22:13.146Z,2.40
2022-08-23T04:23:13.163Z,2.00
2022-08-23T04:24:13.097Z,2.00
2022-08-23T04:25:33.013Z,1.90
2022-08-23T04:26:14.078Z,2.40
2022-08-23T04:27:13.077Z,2.50
2022-08-23T04:28:13.090Z,2.40
2022-08-23T04:29:13.056Z,2.00
2022-08-23T04:30:14.034Z,2.00
2022-08-23T04:31:13.033Z,2.30
2022-08-23T04:32:13.005Z,1.90
2022-08-23T04:33:17.707Z,1.90
2022-08-23T04:34:12.997Z,2.10
2022-08-23T04:35:13.063Z,2.10
2022-08-23T04:36:12.961Z,2.50
2022-08-23T04:37:13.346Z,2.00
2022-08-23T04:38:24.736Z,2.00
2022-08-23T04:39:14.697Z,2.30
2022-08-23T04:40:12.998Z,2.40
2022-08-23T04:41:13.648Z,2.20
2022-08-23T04:42:15.016Z,2.30
2022-08-23T04:43:12.896Z,2.60
2022-08-23T04:44:12.885Z,2.20
2022-08-23T04:45:13.767Z,2.30
2022-08-23T04:46:12.856Z,2.20
2022-08-23T04:47:12.926Z,2.10
2022-08-23T04:48:13.126Z,1.90
2022-08-23T04:49:12.826Z,2.80
2022-08-23T04:50:12.817Z,2.20
2022-08-23T04:51:12.806Z,2.20
2022-08-23T04:52:15.118Z,2.50
2022-08-23T04:53:14.196Z,2.00
2022-08-23T04:54:13.525Z,2.20
2022-08-23T04:55:13.802Z,2.40
2022-08-23T04:56:13.275Z,2.30
2022-08-23T04:57:13.596Z,2.10
2022-08-23T04:58:12.728Z,2.60
2022-08-23T04:59:13.156Z,2.10
2022-08-23T05:00:12.696Z,2.20
2022-08-23T05:01:12.764Z,2.00
2022-08-23T05:02:13.453Z,2.40
2022-08-23T05:03:12.706Z,2.20
2022-08-23T05:04:12.638Z,2.70
2022-08-23T05:05:12.643Z,2.50
2022-08-23T05:06:13.372Z,2.40
2022-08-23T05:07:13.457Z,2.40
2022-08-23T05:08:12.597Z,2.30
2022-08-23T05:09:15.089Z,2.40
2022-08-23T05:10:13.667Z,2.60
2022-08-23T05:11:12.664Z,2.40
2022-08-23T05:12:13.485Z,2.30
2022-08-23T05:13:12.676Z,2.30
2022-08-23T05:14:12.527Z,2.40
2022-08-23T05:15:12.518Z,2.40
2022-08-23T05:16:13.167Z,2.40
2022-08-23T05:17:12.701Z,2.40
2022-08-23T05:18:12.475Z,2.50
2022-08-23T05:19:12.500Z,2.40
2022-08-23T05:20:12.468Z,2.60
2022-08-23T05:21:12.456Z,2.40
2022-08-23T05:22:13.108Z,2.50
2022-08-23T05:23:13.189Z,2.20
2022-08-23T05:24:13.741Z,2.40
2022-08-23T05:25:12.411Z,2.50
2022-08-23T05:26:12.387Z,2.40
2022-08-23T05:27:13.723Z,3.10
2022-08-23T05:28:12.661Z,2.40
2022-08-23T05:29:12.718Z,2.50
2022-08-23T05:30:15.401Z,3.20
2022-08-23T05:31:12.327Z,2.90
2022-08-23T05:32:12.327Z,2.60
2022-08-23T05:33:12.307Z,2.40
2022-08-23T05:34:12.987Z,2.60
2022-08-23T05:35:12.307Z,2.70
2022-08-23T05:36:12.257Z,2.30
2022-08-23T05:37:12.266Z,2.70
2022-08-23T05:38:12.248Z,2.50
2022-08-23T05:39:13.012Z,2.70
2022-08-23T05:40:13.974Z,2.50
2022-08-23T05:41:12.457Z,2.50
2022-08-23T05:42:12.177Z,2.40
2022-08-23T05:43:12.190Z,2.60
2022-08-23T05:44:12.406Z,2.80
2022-08-23T05:45:12.882Z,2.50
2022-08-23T05:46:12.728Z,3.00
2022-08-23T05:47:12.144Z,2.70
2022-08-23T05:48:12.109Z,2.50
2022-08-23T05:49:12.130Z,2.30
2022-08-23T05:50:12.229Z,2.20
2022-08-23T05:51:12.810Z,2.40
2022-08-23T05:52:12.116Z,2.20
2022-08-23T05:53:12.091Z,2.70
2022-08-23T05:54:12.061Z,2.60
2022-08-23T05:55:12.028Z,2.60
2022-08-23T05:56:12.839Z,2.40
2022-08-23T05:57:12.027Z,2.50
2022-08-23T05:58:12.017Z,2.40
2022-08-23T05:59:12.744Z,2.50
2022-08-23T06:00:12.007Z,2.40
2022-08-23T06:01:12.034Z,2.70
2022-08-23T06:02:11.998Z,2.40
2022-08-23T06:03:11.951Z,2.70
2022-08-23T06:04:11.947Z,2.30
2022-08-23T06:05:11.918Z,2.30
2022-08-23T06:06:11.925Z,2.20
2022-08-23T06:07:12.809Z,2.60
2022-08-23T06:08:11.918Z,2.60
2022-08-23T06:09:11.878Z,2.70
2022-08-23T06:10:15.989Z,2.50
2022-08-23T06:11:11.849Z,2.40
2022-08-23T06:12:11.860Z,3.00
2022-08-23T06:13:11.837Z,2.40
2022-08-23T06:14:11.880Z,2.40
2022-08-23T06:15:11.818Z,2.30
2022-08-23T06:16:15.098Z,2.60
2022-08-23T06:17:11.798Z,2.10
2022-08-23T06:18:12.305Z,2.00
2022-08-23T06:19:11.810Z,1.80
2022-08-23T06:20:12.243Z,1.70
2022-08-23T06:21:12.198Z,1.90
2022-08-23T06:22:11.898Z,1.40
2022-08-23T06:23:12.098Z,1.70
2022-08-23T06:24:11.753Z,2.30
2022-08-23T06:25:11.713Z,2.20
2022-08-23T06:26:11.696Z,2.10
2022-08-23T06:27:11.669Z,1.90
2022-08-23T06:28:11.669Z,2.20
2022-08-23T06:29:12.511Z,2.20
2022-08-23T06:30:13.242Z,1.90
2022-08-23T06:31:11.739Z,1.90
2022-08-23T06:32:12.523Z,1.90
2022-08-23T06:33:12.359Z,1.70
2022-08-23T06:34:12.563Z,1.80
2022-08-23T06:35:33.182Z,1.70
2022-08-23T06:36:12.579Z,1.90
2022-08-23T06:37:11.560Z,2.10
2022-08-23T06:38:11.807Z,2.00
2022-08-23T06:39:11.530Z,2.00
2022-08-23T06:40:12.526Z,1.90
2022-08-23T06:41:11.531Z,2.30
2022-08-23T06:42:34.804Z,1.50
2022-08-23T06:43:12.490Z,1.60
2022-08-23T06:44:11.492Z,2.00
2022-08-23T06:45:11.461Z,1.90
2022-08-23T06:46:11.784Z,3.30
2022-08-23T06:47:11.440Z,2.20
2022-08-23T06:48:13.867Z,1.80
2022-08-23T06:49:11.420Z,1.80
2022-08-23T06:50:11.421Z,3.70
2022-08-23T06:51:11.390Z,2.80
2022-08-23T06:52:11.429Z,3.30
2022-08-23T06:53:11.370Z,4.50
2022-08-23T06:54:11.371Z,3.20
2022-08-23T06:55:13.804Z,2.10
2022-08-23T06:56:11.361Z,2.50
2022-08-23T06:57:11.330Z,1.80
2022-08-23T06:58:12.540Z,1.80
2022-08-23T06:59:11.311Z,2.00
2022-08-23T07:00:11.750Z,1.70
2022-08-23T07:01:28.582Z,1.80
2022-08-23T07:02:12.393Z,1.80
2022-08-23T07:03:11.368Z,2.30
2022-08-23T07:04:11.268Z,1.70
2022-08-23T07:05:11.242Z,1.70
2022-08-23T07:06:11.241Z,1.70
2022-08-23T07:07:12.131Z,2.00
2022-08-23T07:08:11.221Z,1.70
2022-08-23T07:09:11.195Z,1.90
2022-08-23T07:10:11.234Z,1.80
2022-08-23T07:11:11.173Z,1.70
2022-08-23T07:12:11.173Z,1.90
2022-08-23T07:13:11.151Z,4.60
2022-08-23T07:14:11.152Z,1.80
2022-08-23T07:15:11.134Z,1.80
2022-08-23T07:16:11.167Z,5.20
2022-08-23T07:17:11.102Z,7.00
2022-08-23T07:18:11.101Z,2.90
2022-08-23T07:19:11.081Z,2.50
2022-08-23T07:20:11.088Z,1.80
2022-08-23T07:21:11.065Z,3.60
2022-08-23T07:22:11.061Z,1.80
2022-08-23T07:23:11.043Z,1.80
2022-08-23T07:24:11.039Z,2.00
2022-08-23T07:25:11.041Z,2.00
2022-08-23T07:26:11.029Z,1.70
2022-08-23T07:27:10.991Z,2.00
2022-08-23T07:28:11.797Z,1.80
2022-08-23T07:29:10.973Z,2.10
2022-08-23T07:30:10.974Z,2.10
2022-08-23T07:31:14.560Z,2.10
2022-08-23T07:32:11.010Z,1.60
2022-08-23T07:33:10.914Z,2.00
2022-08-23T07:34:10.923Z,1.80
2022-08-23T07:35:10.894Z,15.90
2022-08-23T07:36:10.902Z,16.10
2022-08-23T07:37:11.274Z,11.30
2022-08-23T07:38:10.873Z,2.80
2022-08-23T07:39:10.858Z,3.00
2022-08-23T07:40:10.897Z,2.70
2022-08-23T07:41:11.834Z,3.00
2022-08-23T07:42:23.921Z,3.00
2022-08-23T07:43:11.803Z,2.80
2022-08-23T07:44:10.806Z,2.30
2022-08-23T07:45:12.920Z,1.90
2022-08-23T07:46:12.537Z,2.10
2022-08-23T07:47:10.763Z,2.00
2022-08-23T07:48:10.772Z,2.10
2022-08-23T07:49:10.734Z,2.10
2022-08-23T07:50:10.744Z,2.20
2022-08-23T07:51:10.757Z,2.00
2022-08-23T07:52:12.117Z,1.80
2022-08-23T07:53:10.704Z,1.90
2022-08-23T07:54:10.716Z,2.30
2022-08-23T07:55:10.702Z,2.00
2022-08-23T07:56:10.692Z,2.30
2022-08-23T07:57:10.654Z,1.90
2022-08-23T07:58:10.684Z,2.20
2022-08-23T07:59:10.640Z,1.60
2022-08-23T08:00:10.642Z,1.80
2022-08-23T08:01:10.616Z,1.80
2022-08-23T08:02:11.568Z,1.60
2022-08-23T08:03:11.316Z,1.60
2022-08-23T08:04:10.587Z,1.80
2022-08-23T08:05:10.566Z,1.60
2022-08-23T08:06:10.565Z,1.80
2022-08-23T08:07:19.303Z,1.50
2022-08-23T08:08:11.538Z,1.70
2022-08-23T08:09:10.515Z,1.60
2022-08-23T08:10:10.517Z,1.90
2022-08-23T08:11:10.498Z,2.10
2022-08-23T08:12:10.496Z,1.90
2022-08-23T08:13:10.466Z,1.70
2022-08-23T08:14:10.555Z,3.20
2022-08-23T08:15:10.448Z,2.80
2022-08-23T08:16:10.516Z,4.20
2022-08-23T08:17:10.430Z,2.00
2022-08-23T08:18:10.435Z,1.80
2022-08-23T08:19:10.436Z,2.00
2022-08-23T08:20:10.407Z,1.90
2022-08-23T08:21:10.389Z,1.60
2022-08-23T08:22:10.385Z,2.20
2022-08-23T08:23:10.359Z,2.80
2022-08-23T08:24:10.358Z,3.00
2022-08-23T08:25:10.338Z,2.40
2022-08-23T08:26:10.347Z,2.30
2022-08-23T08:27:10.308Z,2.10
2022-08-23T08:28:15.575Z,2.00
2022-08-23T08:29:11.288Z,1.80
2022-08-23T08:30:10.506Z,1.80
2022-08-23T08:31:10.328Z,1.90
2022-08-23T08:32:13.955Z,1.30
2022-08-23T08:33:10.240Z,2.00
2022-08-23T08:34:10.238Z,1.80
2022-08-23T08:35:10.220Z,1.90
2022-08-23T08:36:10.250Z,1.80
2022-08-23T08:37:10.198Z,1.90
2022-08-23T08:38:10.200Z,1.90
2022-08-23T08:39:10.404Z,2.30
2022-08-23T08:40:10.260Z,2.20
2022-08-23T08:41:10.160Z,1.90
2022-08-23T08:42:10.159Z,2.00
2022-08-23T08:43:10.187Z,1.80
2022-08-23T08:44:12.713Z,1.70
2022-08-23T08:45:10.110Z,1.80
2022-08-23T08:46:10.925Z,1.80
2022-08-23T08:47:10.360Z,2.00
2022-08-23T08:48:13.405Z,1.60
2022-08-23T08:49:10.069Z,1.80
2022-08-23T08:50:10.068Z,2.10
2022-08-23T08:51:10.041Z,1.80
2022-08-23T08:52:10.057Z,2.10
2022-08-23T08:53:10.023Z,1.70
2022-08-23T08:54:10.030Z,2.00
2022-08-23T08:55:09.991Z,1.70
2022-08-23T08:56:10.237Z,1.70
2022-08-23T08:57:10.821Z,1.90
2022-08-23T08:58:10.193Z,1.90
2022-08-23T08:59:09.951Z,2.20
2022-08-23T09:00:09.960Z,1.60
2022-08-23T09:01:09.931Z,2.00
2022-08-23T09:02:31.962Z,1.80
2022-08-23T09:03:10.997Z,1.90
2022-08-23T09:04:09.919Z,1.90
2022-08-23T09:05:09.885Z,1.90
2022-08-23T09:06:09.882Z,2.30
2022-08-23T09:07:09.872Z,3.50
2022-08-23T09:08:10.795Z,2.40
2022-08-23T09:09:09.874Z,1.90
2022-08-23T09:10:09.852Z,2.10
2022-08-23T09:11:09.825Z,7.00
2022-08-23T09:12:10.021Z,4.30
2022-08-23T09:13:09.793Z,4.70
2022-08-23T09:14:09.824Z,4.50
2022-08-23T09:15:09.791Z,4.40
2022-08-23T09:16:09.827Z,2.60
2022-08-23T09:17:09.753Z,2.50
2022-08-23T09:18:09.754Z,2.40
2022-08-23T09:19:10.506Z,1.90
2022-08-23T09:20:09.767Z,2.00
2022-08-23T09:21:09.733Z,2.00
2022-08-23T09:22:09.713Z,2.10
2022-08-23T09:23:09.704Z,2.60
2022-08-23T09:24:10.537Z,2.30
2022-08-23T09:25:10.316Z,2.20
2022-08-23T09:26:09.674Z,2.00
2022-08-23T09:27:10.519Z,2.30
2022-08-23T09:28:09.670Z,2.10
2022-08-23T09:29:09.636Z,1.60
2022-08-23T09:30:10.475Z,2.00
2022-08-23T09:31:09.678Z,2.10
2022-08-23T09:32:09.614Z,2.00
2022-08-23T09:33:09.576Z,2.20
2022-08-23T09:34:09.585Z,2.20
2022-08-23T09:35:09.555Z,2.40
2022-08-23T09:36:09.736Z,2.20
2022-08-23T09:37:09.811Z,1.80
2022-08-23T09:38:09.747Z,2.30
2022-08-23T09:39:09.517Z,2.20
2022-08-23T09:40:09.544Z,2.80
2022-08-23T09:41:09.507Z,2.20
2022-08-23T09:42:09.566Z,2.20
2022-08-23T09:43:09.716Z,2.10
2022-08-23T09:44:10.423Z,2.20
2022-08-23T09:45:09.516Z,1.80
2022-08-23T09:46:10.287Z,2.20
2022-08-23T09:47:10.198Z,1.90
2022-08-23T09:48:10.317Z,2.30
2022-08-23T09:49:09.596Z,1.90
2022-08-23T09:50:10.348Z,2.40
2022-08-23T09:51:09.397Z,2.10
2022-08-23T09:52:10.158Z,2.10
2022-08-23T09:53:10.127Z,2.10
2022-08-23T09:54:09.378Z,1.90
2022-08-23T09:55:10.122Z,2.10
2022-08-23T09:56:09.341Z,2.10
2022-08-23T09:57:10.190Z,2.20
2022-08-23T09:58:10.096Z,2.40
2022-08-23T09:59:09.859Z,2.10
2022-08-23T10:00:10.154Z,2.00
2022-08-23T10:01:10.124Z,2.10
2022-08-23T10:02:09.850Z,2.20
2022-08-23T10:03:10.121Z,1.90
2022-08-23T10:04:10.146Z,2.10
2022-08-23T10:05:13.293Z,2.50
2022-08-23T10:06:11.110Z,2.00
2022-08-23T10:07:09.243Z,2.10
2022-08-23T10:08:10.867Z,2.10
2022-08-23T10:09:10.059Z,2.50
2022-08-23T10:10:09.211Z,2.20
2022-08-23T10:11:10.123Z,2.40
2022-08-23T10:12:09.150Z,2.00
2022-08-23T10:13:09.148Z,1.80
2022-08-23T10:14:09.362Z,2.10
2022-08-23T10:15:09.235Z,2.20
2022-08-23T10:16:09.316Z,2.00
2022-08-23T10:17:09.113Z,2.40
2022-08-23T10:18:09.980Z,2.00
2022-08-23T10:19:09.113Z,2.30
2022-08-23T10:20:09.062Z,2.00
2022-08-23T10:21:09.070Z,2.00
2022-08-23T10:22:09.035Z,1.90
2022-08-23T10:23:10.051Z,2.50
2022-08-23T10:24:09.917Z,2.90
2022-08-23T10:25:09.800Z,3.10
2022-08-23T10:26:09.012Z,3.50
2022-08-23T10:27:09.004Z,4.30
2022-08-23T10:28:08.974Z,2.00
2022-08-23T10:29:08.983Z,2.30
2022-08-23T10:30:08.963Z,6.20
2022-08-23T10:31:09.807Z,2.40
2022-08-23T10:32:09.713Z,3.40
2022-08-23T10:33:08.974Z,2.20
2022-08-23T10:34:10.781Z,14.00
2022-08-23T10:35:08.953Z,9.00
2022-08-23T10:36:09.773Z,7.30
2022-08-23T10:37:08.912Z,2.60
2022-08-23T10:38:09.693Z,2.60
2022-08-23T10:39:09.068Z,2.60
2022-08-23T10:40:08.970Z,2.00
2022-08-23T10:41:09.145Z,2.40
2022-08-23T10:42:09.145Z,2.00
2022-08-23T10:43:08.814Z,2.00
2022-08-23T10:44:08.955Z,2.20
2022-08-23T10:45:08.815Z,2.10
2022-08-23T10:46:09.019Z,2.10
2022-08-23T10:47:09.475Z,1.90
2022-08-23T10:48:08.776Z,2.00
2022-08-23T10:49:09.591Z,2.00
2022-08-23T10:50:08.907Z,2.00
2022-08-23T10:51:08.786Z,2.90
2022-08-23T10:52:09.516Z,3.30
2022-08-23T10:53:09.429Z,2.10
2022-08-23T10:54:08.715Z,1.90
2022-08-23T10:55:08.726Z,2.80
2022-08-23T10:56:08.789Z,1.90
2022-08-23T10:57:08.747Z,1.90
2022-08-23T10:58:08.646Z,1.80
2022-08-23T10:59:08.760Z,2.30
2022-08-23T11:00:08.764Z,2.50
2022-08-23T11:01:08.733Z,2.10
2022-08-23T11:02:08.673Z,1.90
2022-08-23T11:03:08.687Z,1.80
2022-08-23T11:04:08.797Z,1.90
2022-08-23T11:05:08.811Z,1.70
2022-08-23T11:06:09.475Z,2.20
2022-08-23T11:07:09.349Z,1.80
2022-08-23T11:08:09.258Z,2.00
2022-08-23T11:09:08.629Z,2.20
2022-08-23T11:10:10.023Z,1.80
2022-08-23T11:11:09.608Z,2.00
2022-08-23T11:12:11.016Z,1.80
2022-08-23T11:13:09.292Z,2.30
2022-08-23T11:14:09.980Z,2.40
2022-08-23T11:15:08.556Z,6.20
2022-08-23T11:16:08.490Z,3.30
2022-08-23T11:17:08.461Z,4.80
2022-08-23T11:18:08.469Z,9.50
2022-08-23T11:19:08.522Z,22.40
2022-08-23T11:20:10.158Z,20.70
2022-08-23T11:21:08.468Z,30.90
2022-08-23T11:22:08.624Z,28.70
2022-08-23T11:23:09.100Z,7.00
2022-08-23T11:24:08.411Z,2.10
2022-08-23T11:25:08.429Z,2.20
2022-08-23T11:26:09.071Z,2.00
2022-08-23T11:27:09.040Z,2.00
2022-08-23T11:28:08.366Z,2.00
2022-08-23T11:29:08.651Z,1.80
2022-08-23T11:30:08.291Z,3.20
2022-08-23T11:31:08.363Z,2.40
2022-08-23T11:32:08.272Z,2.30
2022-08-23T11:33:08.783Z,2.00
2022-08-23T11:34:08.254Z,2.30
2022-08-23T11:35:09.030Z,1.80
2022-08-23T11:36:08.282Z,1.70
2022-08-23T11:37:08.232Z,2.10
2022-08-23T11:38:08.234Z,1.80
2022-08-23T11:39:08.912Z,2.00
2022-08-23T11:40:08.247Z,1.80
2022-08-23T11:41:08.214Z,17.50
2022-08-23T11:42:08.172Z,25.10
2022-08-23T11:43:08.193Z,8.00
2022-08-23T11:44:08.182Z,4.80
2022-08-23T11:45:08.143Z,3.70
2022-08-23T11:46:08.951Z,2.80
2022-08-23T11:47:08.846Z,2.10
2022-08-23T11:48:08.148Z,1.90
2022-08-23T11:49:08.275Z,2.20
2022-08-23T11:50:08.274Z,2.00
2022-08-23T11:51:08.284Z,2.00
2022-08-23T11:52:08.056Z,2.20
2022-08-23T11:53:08.076Z,2.10
2022-08-23T11:54:08.963Z,1.90
2022-08-23T11:55:08.034Z,2.00
2022-08-23T11:56:08.015Z,2.90
2022-08-23T11:57:08.034Z,12.60
2022-08-23T11:58:07.995Z,12.00
2022-08-23T11:59:09.100Z,3.40
2022-08-23T12:00:08.035Z,4.70
2022-08-23T12:01:08.776Z,3.80
2022-08-23T12:02:08.000Z,2.70
2022-08-23T12:03:08.081Z,2.40
2022-08-23T12:04:08.896Z,2.00
2022-08-23T12:05:07.975Z,2.70
2022-08-23T12:06:07.919Z,2.40
2022-08-23T12:07:08.724Z,2.00
2022-08-23T12:08:08.625Z,2.00
2022-08-23T12:09:08.598Z,1.90
2022-08-23T12:10:08.207Z,2.20
2022-08-23T12:11:08.526Z,1.90
2022-08-23T12:12:07.853Z,2.00
2022-08-23T12:13:08.731Z,2.20
2022-08-23T12:14:07.838Z,1.90
2022-08-23T12:15:07.838Z,1.90
2022-08-23T12:16:16.662Z,1.80
2022-08-23T12:17:08.790Z,2.00
2022-08-23T12:18:08.158Z,2.40
2022-08-23T12:19:09.744Z,2.30
2022-08-23T12:20:13.152Z,3.10
2022-08-23T12:21:08.845Z,2.00
2022-08-23T12:22:07.730Z,1.90
2022-08-23T12:23:07.741Z,2.20
2022-08-23T12:24:07.711Z,2.00
2022-08-23T12:25:07.710Z,2.20
2022-08-23T12:26:08.429Z,1.80
2022-08-23T12:27:08.400Z,1.60
2022-08-23T12:28:08.490Z,1.80
2022-08-23T12:29:08.390Z,1.90
2022-08-23T12:30:07.651Z,2.00
2022-08-23T12:31:13.592Z,1.90
2022-08-23T12:32:08.760Z,2.10
2022-08-23T12:33:07.618Z,1.80
2022-08-23T12:34:07.617Z,2.10
2022-08-23T12:35:07.590Z,1.80
2022-08-23T12:36:07.579Z,1.70
2022-08-23T12:37:09.581Z,2.00
2022-08-23T12:38:07.552Z,1.80
2022-08-23T12:39:08.458Z,1.60
2022-08-23T12:40:08.419Z,1.60
2022-08-23T12:41:07.912Z,1.60
2022-08-23T12:42:07.554Z,1.90
2022-08-23T12:43:07.551Z,2.10
2022-08-23T12:44:07.531Z,1.70
2022-08-23T12:45:08.393Z,1.80
2022-08-23T12:46:08.414Z,2.00
2022-08-23T12:47:08.391Z,1.90
2022-08-23T12:48:08.192Z,2.00
2022-08-23T12:49:07.472Z,1.80
2022-08-23T12:50:08.423Z,2.00
2022-08-23T12:51:07.424Z,1.70
2022-08-23T12:52:07.404Z,1.90
2022-08-23T12:53:07.473Z,1.80
2022-08-23T12:54:07.387Z,1.80
2022-08-23T12:55:07.383Z,2.00
2022-08-23T12:56:07.363Z,2.10
2022-08-23T12:57:07.363Z,1.80
2022-08-23T12:58:07.333Z,1.80
2022-08-23T12:59:07.349Z,1.90
2022-08-23T13:00:17.107Z,1.80
2022-08-23T13:01:08.424Z,1.80
2022-08-23T13:02:07.316Z,1.70
2022-08-23T13:03:07.359Z,1.80
2022-08-23T13:04:07.274Z,1.90
2022-08-23T13:05:11.348Z,1.80
2022-08-23T13:06:08.254Z,1.80
2022-08-23T13:07:07.255Z,1.70
2022-08-23T13:08:07.245Z,2.40
2022-08-23T13:09:07.278Z,1.80
2022-08-23T13:10:07.206Z,1.80
2022-08-23T13:11:08.586Z,1.70
2022-08-23T13:12:07.186Z,2.10
2022-08-23T13:13:07.198Z,1.90
2022-08-23T13:14:07.166Z,1.90
2022-08-23T13:15:07.175Z,1.70
2022-08-23T13:16:07.460Z,2.20
2022-08-23T13:17:07.156Z,1.80
2022-08-23T13:18:07.126Z,1.90